createdAt,value
2023-01-01T00:00:19.552Z,99968.56
2023-01-01T00:04:06.743Z,99969.77
2023-01-01T00:07:33.629Z,99972.20
2023-01-01T00:11:04.028Z,99976.23
2023-01-01T00:14:30.984Z,99982.19
2023-01-01T00:17:57.987Z,99989.42
2023-01-01T00:21:24.359Z,99990.70
2023-01-01T00:24:52.649Z,99992.70
2023-01-01T00:28:19.157Z,99997.38
2023-01-01T00:31:46.006Z,99989.91
2023-01-01T00:35:15.730Z,99997.96
2023-01-01T00:38:46.648Z,100006.83
2023-01-01T00:42:15.220Z,100005.77
2023-01-01T00:45:47.935Z,100001.19
2023-01-01T00:49:19.440Z,99997.17
2023-01-01T00:52:56.031Z,99995.80
2023-01-01T00:56:23.630Z,99991.98
2023-01-01T00:59:53.239Z,100000.27
2023-01-01T01:03:29.281Z,99994.52
2023-01-01T01:06:58.759Z,99988.83
2023-01-01T01:10:26.323Z,99983.71
2023-01-01T01:13:56.337Z,99979.05
2023-01-01T01:17:23.233Z,99978.95
2023-01-01T01:20:55.359Z,99991.33
2023-01-01T01:24:21.712Z,100000.60
2023-01-01T01:27:48.310Z,100008.20
2023-01-01T01:31:15.443Z,100011.26
2023-01-01T01:34:41.946Z,100009.96
2023-01-01T01:38:08.762Z,100010.14
2023-01-01T01:41:46.593Z,100014.79
2023-01-01T01:45:16.075Z,100015.23
2023-01-01T01:48:46.038Z,100014.83
2023-01-01T01:52:13.154Z,100006.10
2023-01-01T01:55:42.817Z,100013.09
2023-01-01T01:59:10.338Z,100009.26
2023-01-01T02:02:41.849Z,100011.36
2023-01-01T02:06:09.018Z,100011.06
2023-01-01T02:09:35.940Z,100017.53
2023-01-01T02:13:03.880Z,100016.52
2023-01-01T02:16:38.097Z,100021.34
2023-01-01T02:20:20.775Z,100020.70
2023-01-01T02:24:28.447Z,100015.51
2023-01-01T02:28:02.567Z,100012.60
2023-01-01T02:31:33.471Z,100014.41
2023-01-01T02:35:24.305Z,100021.64
2023-01-01T02:38:56.464Z,100020.55
2023-01-01T02:42:25.563Z,100028.27
2023-01-01T02:45:52.549Z,100022.33
2023-01-01T02:49:21.072Z,100019.31
2023-01-01T02:53:00.325Z,100013.06
2023-01-01T02:56:34.889Z,100018.80
2023-01-01T03:00:27.741Z,100015.99
2023-01-01T03:04:05.691Z,100016.83
2023-01-01T03:07:41.902Z,100015.84
2023-01-01T03:11:12.623Z,100012.81
2023-01-01T03:14:47.627Z,100011.65
2023-01-01T03:18:19.965Z,100012.05
2023-01-01T03:21:51.175Z,100010.78
2023-01-01T03:25:23.204Z,100022.23
2023-01-01T03:28:55.294Z,100021.73
2023-01-01T03:32:45.210Z,100019.80
2023-01-01T03:36:15.219Z,100019.09
2023-01-01T03:39:46.895Z,100020.55
2023-01-01T03:43:16.944Z,100022.52
2023-01-01T03:46:45.208Z,100022.34
2023-01-01T03:50:13.991Z,100034.59
2023-01-01T03:53:43.650Z,100039.16
2023-01-01T03:57:15.865Z,100035.72
2023-01-01T04:00:48.265Z,100038.43
2023-01-01T04:04:17.025Z,100040.93
2023-01-01T04:11:29.462Z,100045.38
2023-01-01T04:14:56.554Z,100050.30
2023-01-01T04:18:23.449Z,100054.46
2023-01-01T04:21:49.889Z,100057.98
2023-01-01T04:25:17.749Z,100063.89
2023-01-01T04:28:44.373Z,100076.30
2023-01-01T04:32:10.797Z,100091.71
2023-01-01T04:35:37.444Z,100094.38
2023-01-01T04:39:04.426Z,100096.23
2023-01-01T04:42:30.768Z,100101.45
2023-01-01T04:46:00.531Z,100099.71
2023-01-01T04:49:27.669Z,100099.70
2023-01-01T04:52:55.223Z,100099.47
2023-01-01T04:56:23.116Z,100099.79
2023-01-01T04:59:49.435Z,100102.33
2023-01-01T05:03:15.663Z,100098.23
2023-01-01T05:06:42.205Z,100097.94
2023-01-01T05:10:10.265Z,100095.36
2023-01-01T05:13:37.724Z,100103.64
2023-01-01T05:17:04.868Z,100114.17
2023-01-01T05:20:31.345Z,100115.21
2023-01-01T05:23:59.994Z,100103.52
2023-01-01T05:27:26.443Z,100109.36
2023-01-01T05:30:53.383Z,100117.10
2023-01-01T05:34:19.580Z,100125.98
2023-01-01T05:37:45.817Z,100139.95
2023-01-01T05:41:14.483Z,100146.13
2023-01-01T05:44:40.782Z,100150.98
2023-01-01T05:48:08.258Z,100146.21
2023-01-01T05:55:01.403Z,100161.13
2023-01-01T05:58:28.869Z,100160.38
2023-01-01T06:01:55.749Z,100159.13
2023-01-01T06:05:22.097Z,100154.83
2023-01-01T06:08:53.884Z,100150.94
2023-01-01T06:12:20.156Z,100155.23
2023-01-01T06:15:54.108Z,100154.21
2023-01-01T06:19:20.536Z,100151.35
2023-01-01T06:22:47.210Z,100157.06
2023-01-01T06:26:15.308Z,100165.78
2023-01-01T06:29:41.657Z,100168.54
2023-01-01T06:33:08.477Z,100183.10
2023-01-01T06:36:35.201Z,100179.48
2023-01-01T06:40:01.458Z,100181.23
2023-01-01T06:43:28.128Z,100182.13
2023-01-01T06:46:55.209Z,100189.02
2023-01-01T06:50:22.127Z,100196.59
2023-01-01T06:53:48.618Z,100197.36
2023-01-01T06:57:16.213Z,100201.13
2023-01-01T07:00:43.639Z,100207.55
2023-01-01T07:04:13.053Z,100197.66
2023-01-01T07:07:43.616Z,100198.70
2023-01-01T07:11:14.217Z,100204.80
2023-01-01T07:14:42.810Z,100214.05
2023-01-01T07:18:10.843Z,100211.02
2023-01-01T07:21:43.873Z,100205.84
2023-01-01T07:25:15.278Z,100210.73
2023-01-01T07:28:43.074Z,100217.18
2023-01-01T07:32:18.472Z,100222.77
2023-01-01T07:35:46.571Z,100222.41
2023-01-01T07:39:13.984Z,100226.13
2023-01-01T07:42:41.915Z,100236.35
2023-01-01T07:46:12.260Z,100240.55
2023-01-01T07:49:39.773Z,100250.05
2023-01-01T07:53:07.342Z,100258.84
2023-01-01T07:56:35.517Z,100269.71
2023-01-01T08:00:03.372Z,100274.12
2023-01-01T08:03:39.518Z,100276.39
2023-01-01T08:07:06.299Z,100275.84
2023-01-01T08:10:33.927Z,100277.50
2023-01-01T08:14:00.273Z,100279.70
2023-01-01T08:17:28.455Z,100274.73
2023-01-01T08:20:55.577Z,100269.95
2023-01-01T08:24:22.067Z,100271.44
2023-01-01T08:27:48.887Z,100274.66
2023-01-01T08:31:15.495Z,100270.13
2023-01-01T08:34:42.034Z,100269.48
2023-01-01T08:38:08.601Z,100276.09
2023-01-01T08:41:35.314Z,100275.56
2023-01-01T08:45:01.650Z,100272.98
2023-01-01T08:48:30.922Z,100268.55
2023-01-01T08:51:58.249Z,100272.20
2023-01-01T08:55:25.019Z,100268.95
2023-01-01T08:58:51.644Z,100273.56
2023-01-01T09:02:20.060Z,100272.95
2023-01-01T09:05:47.158Z,100274.73
2023-01-01T09:09:13.852Z,100278.63
2023-01-01T09:12:40.107Z,100281.30
2023-01-01T09:16:07.437Z,100282.71
2023-01-01T09:19:34.055Z,100282.67
2023-01-01T09:23:05.663Z,100288.95
2023-01-01T09:26:32.838Z,100287.73
2023-01-01T09:30:00.174Z,100285.30
2023-01-01T09:33:29.200Z,100288.80
2023-01-01T09:36:55.445Z,100284.36
2023-01-01T09:40:30.316Z,100284.95
2023-01-01T09:44:04.614Z,100290.15
2023-01-01T09:47:36.741Z,100293.26
2023-01-01T09:51:14.641Z,100292.67
2023-01-01T09:54:47.202Z,100293.53
2023-01-01T09:58:17.269Z,100301.48
2023-01-01T10:01:51.837Z,100307.78
2023-01-01T10:05:33.574Z,100308.70
2023-01-01T10:09:18.020Z,100316.52
2023-01-01T10:12:51.389Z,100321.25
2023-01-01T10:16:30.715Z,100323.54
2023-01-01T10:20:02.502Z,100324.24
2023-01-01T10:23:33.742Z,100321.34
2023-01-01T10:27:03.480Z,100313.16
2023-01-01T10:30:31.365Z,100312.48
2023-01-01T10:33:58.840Z,100324.73
2023-01-01T10:37:25.693Z,100311.84
2023-01-01T10:40:55.416Z,100311.73
2023-01-01T10:44:29.031Z,100304.72
2023-01-01T10:48:27.961Z,100295.77
2023-01-01T10:51:55.849Z,100300.89
2023-01-01T10:55:27.229Z,100308.34
2023-01-01T10:58:55.545Z,100317.92
2023-01-01T11:02:24.989Z,100325.23
2023-01-01T11:06:12.350Z,100317.85
2023-01-01T11:09:39.876Z,100326.05
2023-01-01T11:13:16.005Z,100331.33
2023-01-01T11:16:47.207Z,100327.48
2023-01-01T11:20:23.889Z,100316.64
2023-01-01T11:23:54.166Z,100321.59
2023-01-01T11:27:26.923Z,100316.81
2023-01-01T11:31:07.333Z,100324.59
2023-01-01T11:34:37.952Z,100328.60
2023-01-01T11:38:06.352Z,100328.71
2023-01-01T11:41:45.027Z,100334.13
2023-01-01T11:45:26.048Z,100332.46
2023-01-01T11:49:03.244Z,100333.17
2023-01-01T11:52:59.603Z,100340.14
2023-01-01T11:56:50.632Z,100338.95
2023-01-01T12:00:25.213Z,100338.48
2023-01-01T12:03:56.424Z,100352.35
2023-01-01T12:07:29.754Z,100352.73
2023-01-01T12:11:00.120Z,100354.11
2023-01-01T12:14:34.806Z,100357.93
2023-01-01T12:18:07.964Z,100362.27
2023-01-01T12:21:37.370Z,100368.48
2023-01-01T12:25:05.375Z,100371.02
2023-01-01T12:28:46.336Z,100374.10
2023-01-01T12:32:22.808Z,100371.98
2023-01-01T12:36:10.102Z,100368.84
2023-01-01T12:40:21.235Z,100366.10
2023-01-01T12:44:06.312Z,100365.28
2023-01-01T12:47:43.891Z,100377.42
2023-01-01T12:51:24.272Z,100383.16
2023-01-01T12:55:25.235Z,100386.23
2023-01-01T12:58:58.099Z,100392.95
2023-01-01T13:02:35.905Z,100402.73
2023-01-01T13:06:09.987Z,100407.58
2023-01-01T13:09:40.133Z,100406.20
2023-01-01T13:13:08.029Z,100402.59
2023-01-01T13:16:53.103Z,100408.44
2023-01-01T13:20:26.791Z,100414.30
2023-01-01T13:24:19.684Z,100426.27
2023-01-01T13:28:16.529Z,100437.04
2023-01-01T13:32:09.265Z,100434.10
2023-01-01T13:35:37.817Z,100423.60
2023-01-01T13:39:05.329Z,100432.68
2023-01-01T13:42:52.606Z,100442.77
2023-01-01T13:46:20.835Z,100457.67
2023-01-01T13:50:13.798Z,100458.04
2023-01-01T13:54:09.800Z,100458.42
2023-01-01T13:58:16.876Z,100456.21
2023-01-01T14:01:55.263Z,100458.19
2023-01-01T14:05:29.408Z,100467.81
2023-01-01T14:09:07.487Z,100471.59
2023-01-01T14:12:40.028Z,100484.46
2023-01-01T14:16:14.060Z,100469.24
2023-01-01T14:19:43.209Z,100465.95
2023-01-01T14:23:16.851Z,100476.14
2023-01-01T14:26:46.926Z,100487.59
2023-01-01T14:30:23.201Z,100493.67
2023-01-01T14:33:57.934Z,100509.04
2023-01-01T14:37:26.571Z,100511.86
2023-01-01T14:41:05.007Z,100520.56
2023-01-01T14:44:41.026Z,100532.01
2023-01-01T14:48:19.787Z,100536.72
2023-01-01T14:51:59.975Z,100552.13
2023-01-01T14:55:34.861Z,100559.34
2023-01-01T14:59:11.770Z,100569.11
2023-01-01T15:02:45.397Z,100576.91
2023-01-01T15:06:25.533Z,100585.98
2023-01-01T15:09:54.439Z,100595.00
2023-01-01T15:13:31.797Z,100598.73
2023-01-01T15:17:08.566Z,100601.65
2023-01-01T15:20:38.037Z,100608.73
2023-01-01T15:24:13.188Z,100612.27
2023-01-01T15:27:46.429Z,100617.55
2023-01-01T15:31:17.422Z,100625.05
2023-01-01T15:34:50.401Z,100634.44
2023-01-01T15:38:22.557Z,100637.45
2023-01-01T15:41:53.140Z,100638.59
2023-01-01T15:45:30.660Z,100644.27
2023-01-01T15:49:02.685Z,100642.21
2023-01-01T15:52:37.659Z,100643.30
2023-01-01T15:56:14.486Z,100649.25
2023-01-01T15:59:47.877Z,100655.54
2023-01-01T16:03:22.507Z,100660.55
2023-01-01T16:06:56.224Z,100668.09
2023-01-01T16:10:25.082Z,100668.19
2023-01-01T16:13:51.888Z,100673.64
2023-01-01T16:17:21.089Z,100671.27
2023-01-01T16:20:48.184Z,100672.36
2023-01-01T16:24:16.785Z,100671.60
2023-01-01T16:27:44.091Z,100666.40
2023-01-01T16:31:15.813Z,100670.70
2023-01-01T16:34:43.129Z,100675.39
2023-01-01T16:38:11.594Z,100668.91
2023-01-01T16:41:43.621Z,100664.46
2023-01-01T16:45:18.394Z,100667.52
2023-01-01T16:48:46.904Z,100676.72
2023-01-01T16:52:13.973Z,100695.92
2023-01-01T16:55:54.788Z,100696.81
2023-01-01T16:59:31.571Z,100688.17
2023-01-01T17:03:01.023Z,100692.51
2023-01-01T17:06:28.870Z,100697.68
2023-01-01T17:09:56.981Z,100702.30
2023-01-01T17:13:23.458Z,100706.18
2023-01-01T17:16:52.245Z,100714.56
2023-01-01T17:20:19.787Z,100709.27
2023-01-01T17:23:46.874Z,100712.40
2023-01-01T17:27:13.849Z,100712.38
2023-01-01T17:30:48.758Z,100719.92
2023-01-01T17:34:20.637Z,100726.92
2023-01-01T17:37:47.383Z,100730.29
2023-01-01T17:41:18.994Z,100736.42
2023-01-01T17:44:45.700Z,100744.31
2023-01-01T17:48:11.984Z,100751.95
2023-01-01T17:51:47.177Z,100756.63
2023-01-01T17:55:14.097Z,100757.09
2023-01-01T17:58:41.087Z,100758.71
2023-01-01T18:02:12.121Z,100761.86
2023-01-01T18:05:38.683Z,100769.33
2023-01-01T18:09:08.327Z,100778.71
2023-01-01T18:12:36.657Z,100790.09
2023-01-01T18:16:04.762Z,100800.41
2023-01-01T18:19:32.731Z,100795.86
2023-01-01T18:22:59.586Z,100797.02
2023-01-01T18:26:27.996Z,100791.39
2023-01-01T18:29:56.482Z,100800.97
2023-01-01T18:33:23.243Z,100805.23
2023-01-01T18:37:02.644Z,100801.50
2023-01-01T18:40:35.832Z,100806.69
2023-01-01T18:44:03.828Z,100807.02
2023-01-01T18:47:32.340Z,100810.16
2023-01-01T18:51:02.878Z,100811.08
2023-01-01T18:54:33.906Z,100811.67
2023-01-01T18:58:06.809Z,100811.16
2023-01-01T19:01:35.875Z,100812.36
2023-01-01T19:05:19.630Z,100811.25
2023-01-01T19:08:45.997Z,100808.73
2023-01-01T19:12:20.315Z,100811.20
2023-01-01T19:15:51.428Z,100811.38
2023-01-01T19:19:23.857Z,100813.73
2023-01-01T19:22:51.118Z,100815.02
2023-01-01T19:26:25.234Z,100819.22
2023-01-01T19:29:53.323Z,100824.06
2023-01-01T19:33:20.439Z,100829.30
2023-01-01T19:36:47.780Z,100835.36
2023-01-01T19:40:15.983Z,100840.25
2023-01-01T19:43:43.478Z,100844.48
2023-01-01T19:47:10.872Z,100844.39
2023-01-01T19:50:39.014Z,100846.23
2023-01-01T19:54:07.369Z,100852.71
2023-01-01T19:57:34.177Z,100855.45
2023-01-01T20:01:00.738Z,100861.48
2023-01-01T20:04:27.290Z,100868.23
2023-01-01T20:07:55.369Z,100867.84
2023-01-01T20:11:22.263Z,100865.35
2023-01-01T20:14:50.574Z,100872.45
2023-01-01T20:18:17.511Z,100877.60
2023-01-01T20:22:04.135Z,100882.27
2023-01-01T20:25:30.585Z,100887.39
2023-01-01T20:29:17.236Z,100886.55
2023-01-01T20:32:43.874Z,100889.52
2023-01-01T20:36:25.692Z,100888.92
2023-01-01T20:39:52.095Z,100893.13
2023-01-01T20:43:19.942Z,100895.24
2023-01-01T20:46:48.379Z,100901.19
2023-01-01T20:50:15.135Z,100906.52
2023-01-01T20:53:41.838Z,100915.14
2023-01-01T20:57:11.282Z,100917.92
2023-01-01T21:00:37.774Z,100915.85
2023-01-01T21:04:04.168Z,100913.35
2023-01-01T21:07:30.530Z,100918.38
2023-01-01T21:10:57.388Z,100921.45
2023-01-01T21:14:27.101Z,100923.29
2023-01-01T21:17:53.483Z,100926.70
2023-01-01T21:21:23.328Z,100928.71
2023-01-01T21:24:53.949Z,100936.61
2023-01-01T21:28:21.186Z,100935.96
2023-01-01T21:31:47.766Z,100936.02
2023-01-01T21:35:23.495Z,100936.37
2023-01-01T21:38:51.975Z,100929.58
2023-01-01T21:42:26.054Z,100927.29
2023-01-01T21:45:53.547Z,100929.29
2023-01-01T21:49:24.266Z,100922.63
2023-01-01T21:52:52.165Z,100920.58
2023-01-01T21:56:30.662Z,100924.55
2023-01-01T21:59:59.914Z,100927.71
2023-01-01T22:03:30.184Z,100919.42
2023-01-01T22:07:01.259Z,100917.48
2023-01-01T22:10:32.975Z,100920.49
2023-01-01T22:14:00.715Z,100928.69
2023-01-01T22:17:35.010Z,100927.27
2023-01-01T22:21:03.805Z,100926.36
2023-01-01T22:24:37.416Z,100920.71
2023-01-01T22:28:18.285Z,100917.59
2023-01-01T22:31:49.374Z,100924.52
2023-01-01T22:35:24.196Z,100924.63
2023-01-01T22:38:51.087Z,100918.93
2023-01-01T22:42:19.631Z,100913.14
2023-01-01T22:45:47.872Z,100912.59
2023-01-01T22:49:20.732Z,100913.69
2023-01-01T22:52:46.010Z,100922.98
2023-01-01T22:56:13.200Z,100928.65
2023-01-01T22:59:40.045Z,100940.63
2023-01-01T23:03:06.943Z,100944.54
2023-01-01T23:06:35.112Z,100939.33
2023-01-01T23:10:03.093Z,100948.49
2023-01-01T23:13:47.286Z,100940.92
2023-01-01T23:17:14.113Z,100934.19
2023-01-01T23:20:40.405Z,100923.76
2023-01-01T23:24:13.157Z,100920.77
2023-01-01T23:27:41.390Z,100923.84
2023-01-01T23:31:12.562Z,100916.98
2023-01-01T23:34:39.501Z,100916.48
2023-01-01T23:38:06.386Z,100908.86
2023-01-01T23:41:35.686Z,100910.90
2023-01-01T23:45:02.000Z,100911.09
2023-01-01T23:48:29.897Z,100913.14
2023-01-01T23:51:57.524Z,100913.36
2023-01-01T23:55:23.758Z,100909.02
2023-01-01T23:58:50.346Z,100898.09
